sensor_id;sensor_type;location;lat;lon;timestamp;temperature;humidity
45233;DHT22;30969;51.052;17.056;2023-05-18T04:55:18;8.90;70.30
45233;DHT22;30969;51.052;17.056;2023-05-18T05:00:28;9.10;70.90
45233;DHT22;30969;51.052;17.056;2023-05-18T05:05:33;9.40;69.30
45233;DHT22;30969;51.052;17.056;2023-05-18T05:10:38;9.80;68.10
45233;DHT22;30969;51.052;17.056;2023-05-18T05:15:41;10.00;67.10
45233;DHT22;30969;51.052;17.056;2023-05-18T05:20:45;10.10;66.50
45233;DHT22;30969;51.052;17.056;2023-05-18T05:25:50;10.30;66.20
45233;DHT22;30969;51.052;17.056;2023-05-18T05:30:54;10.30;65.40
45233;DHT22;30969;51.052;17.056;2023-05-18T05:35:57;10.40;65.30
45233;DHT22;30969;51.052;17.056;2023-05-18T05:41:02;10.40;65.00
45233;DHT22;30969;51.052;17.056;2023-05-18T05:46:06;10.50;64.80
45233;DHT22;30969;51.052;17.056;2023-05-18T05:51:09;10.60;64.80
45233;DHT22;30969;51.052;17.056;2023-05-18T05:56:15;10.70;64.40
45233;DHT22;30969;51.052;17.056;2023-05-18T06:01:18;10.80;63.90
45233;DHT22;30969;51.052;17.056;2023-05-18T06:06:22;10.90;63.30
45233;DHT22;30969;51.052;17.056;2023-05-18T06:11:27;11.00;63.40
45233;DHT22;30969;51.052;17.056;2023-05-18T06:16:31;11.10;62.80
45233;DHT22;30969;51.052;17.056;2023-05-18T06:21:35;11.30;62.80
45233;DHT22;30969;51.052;17.056;2023-05-18T06:26:40;11.40;60.60
45233;DHT22;30969;51.052;17.056;2023-05-18T06:31:44;11.50;60.50
45233;DHT22;30969;51.052;17.056;2023-05-18T06:36:48;11.50;59.80
45233;DHT22;30969;51.052;17.056;2023-05-18T06:41:52;11.70;59.40
45233;DHT22;30969;51.052;17.056;2023-05-18T06:46:56;11.80;58.80
45233;DHT22;30969;51.052;17.056;2023-05-18T06:51:59;11.90;57.60
45233;DHT22;30969;51.052;17.056;2023-05-18T06:57:05;11.80;56.70
45233;DHT22;30969;51.052;17.056;2023-05-18T07:02:09;11.80;56.50
45233;DHT22;30969;51.052;17.056;2023-05-18T07:07:12;11.80;57.30
45233;DHT22;30969;51.052;17.056;2023-05-18T07:12:19;12.00;57.80
45233;DHT22;30969;51.052;17.056;2023-05-18T07:17:22;12.10;57.00
45233;DHT22;30969;51.052;17.056;2023-05-18T07:22:26;12.20;56.10
45233;DHT22;30969;51.052;17.056;2023-05-18T07:27:31;12.30;56.60
45233;DHT22;30969;51.052;17.056;2023-05-18T07:32:35;12.40;56.70
45233;DHT22;30969;51.052;17.056;2023-05-18T07:37:40;12.50;54.70
45233;DHT22;30969;51.052;17.056;2023-05-18T07:42:45;12.50;54.40
45233;DHT22;30969;51.052;17.056;2023-05-18T07:47:49;12.60;55.40
45233;DHT22;30969;51.052;17.056;2023-05-18T07:52:52;12.90;55.10
45233;DHT22;30969;51.052;17.056;2023-05-18T07:57:57;13.00;54.00
45233;DHT22;30969;51.052;17.056;2023-05-18T08:03:02;13.10;53.00
45233;DHT22;30969;51.052;17.056;2023-05-18T08:08:08;13.10;52.70
45233;DHT22;30969;51.052;17.056;2023-05-18T08:13:14;13.20;52.90
45233;DHT22;30969;51.052;17.056;2023-05-18T08:18:18;13.30;51.30
45233;DHT22;30969;51.052;17.056;2023-05-18T08:23:22;13.30;52.10
45233;DHT22;30969;51.052;17.056;2023-05-18T08:28:28;13.50;52.80
45233;DHT22;30969;51.052;17.056;2023-05-18T08:33:31;13.60;50.40
45233;DHT22;30969;51.052;17.056;2023-05-18T08:38:35;13.60;49.40
45233;DHT22;30969;51.052;17.056;2023-05-18T08:43:41;13.50;48.80
45233;DHT22;30969;51.052;17.056;2023-05-18T08:48:51;13.70;51.00
45233;DHT22;30969;51.052;17.056;2023-05-18T08:53:55;13.80;49.10
45233;DHT22;30969;51.052;17.056;2023-05-18T08:59:03;14.00;48.10
45233;DHT22;30969;51.052;17.056;2023-05-18T09:04:09;14.00;48.40
45233;DHT22;30969;51.052;17.056;2023-05-18T09:09:14;14.20;49.00
45233;DHT22;30969;51.052;17.056;2023-05-18T09:14:19;14.30;48.00
45233;DHT22;30969;51.052;17.056;2023-05-18T09:19:27;14.20;48.00
45233;DHT22;30969;51.052;17.056;2023-05-18T09:24:31;14.30;48.50
45233;DHT22;30969;51.052;17.056;2023-05-18T09:29:50;14.50;48.80
45233;DHT22;30969;51.052;17.056;2023-05-18T09:34:54;14.80;48.30
45233;DHT22;30969;51.052;17.056;2023-05-18T09:39:59;15.10;47.60
45233;DHT22;30969;51.052;17.056;2023-05-18T09:45:14;15.30;48.30
45233;DHT22;30969;51.052;17.056;2023-05-18T09:50:19;15.40;46.80
45233;DHT22;30969;51.052;17.056;2023-05-18T09:55:22;15.50;47.60
45233;DHT22;30969;51.052;17.056;2023-05-18T10:00:27;15.70;47.20
45233;DHT22;30969;51.052;17.056;2023-05-18T10:05:31;15.80;46.20
45233;DHT22;30969;51.052;17.056;2023-05-18T10:10:38;15.70;45.50
45233;DHT22;30969;51.052;17.056;2023-05-18T10:15:47;15.70;46.30
45233;DHT22;30969;51.052;17.056;2023-05-18T10:20:53;15.50;44.40
45233;DHT22;30969;51.052;17.056;2023-05-18T10:26:04;15.40;44.60
45233;DHT22;30969;51.052;17.056;2023-05-18T10:31:09;15.50;45.50
45233;DHT22;30969;51.052;17.056;2023-05-18T10:36:13;15.60;44.60
45233;DHT22;30969;51.052;17.056;2023-05-18T10:41:19;15.90;45.40
45233;DHT22;30969;51.052;17.056;2023-05-18T10:46:26;16.20;45.00
45233;DHT22;30969;51.052;17.056;2023-05-18T10:51:30;16.50;42.80
45233;DHT22;30969;51.052;17.056;2023-05-18T10:56:35;16.60;42.20
45233;DHT22;30969;51.052;17.056;2023-05-18T11:01:41;16.60;41.50
45233;DHT22;30969;51.052;17.056;2023-05-18T11:06:53;16.70;41.40
45233;DHT22;30969;51.052;17.056;2023-05-18T11:11:58;16.90;41.90
45233;DHT22;30969;51.052;17.056;2023-05-18T11:17:17;16.90;38.80
45233;DHT22;30969;51.052;17.056;2023-05-18T11:22:21;17.00;40.90
45233;DHT22;30969;51.052;17.056;2023-05-18T11:27:25;17.10;39.70
45233;DHT22;30969;51.052;17.056;2023-05-18T11:32:30;17.10;40.00
45233;DHT22;30969;51.052;17.056;2023-05-18T11:37:47;17.30;40.50
45233;DHT22;30969;51.052;17.056;2023-05-18T11:42:57;17.30;40.30
45233;DHT22;30969;51.052;17.056;2023-05-18T11:48:02;17.40;40.60
45233;DHT22;30969;51.052;17.056;2023-05-18T11:53:07;17.40;39.40
45233;DHT22;30969;51.052;17.056;2023-05-18T11:58:11;17.50;38.80
45233;DHT22;30969;51.052;17.056;2023-05-18T12:03:23;17.70;40.00
45233;DHT22;30969;51.052;17.056;2023-05-18T12:08:28;17.70;37.70
45233;DHT22;30969;51.052;17.056;2023-05-18T12:13:32;17.60;38.30
45233;DHT22;30969;51.052;17.056;2023-05-18T12:18:39;17.80;39.20
45233;DHT22;30969;51.052;17.056;2023-05-18T12:23:42;18.10;38.70
45233;DHT22;30969;51.052;17.056;2023-05-18T12:28:46;18.30;37.80
45233;DHT22;30969;51.052;17.056;2023-05-18T12:33:52;18.30;36.90
45233;DHT22;30969;51.052;17.056;2023-05-18T12:39:01;18.40;36.10
45233;DHT22;30969;51.052;17.056;2023-05-18T12:44:05;18.40;36.80
45233;DHT22;30969;51.052;17.056;2023-05-18T12:49:10;18.40;37.60
45233;DHT22;30969;51.052;17.056;2023-05-18T12:54:14;18.60;38.30
45233;DHT22;30969;51.052;17.056;2023-05-18T12:59:18;18.90;36.60
45233;DHT22;30969;51.052;17.056;2023-05-18T13:04:31;19.20;36.30
45233;DHT22;30969;51.052;17.056;2023-05-18T13:09:34;19.40;35.40
45233;DHT22;30969;51.052;17.056;2023-05-18T13:14:38;19.40;34.60
45233;DHT22;30969;51.052;17.056;2023-05-18T13:19:43;19.60;33.30
45233;DHT22;30969;51.052;17.056;2023-05-18T13:24:47;19.90;34.20
45233;DHT22;30969;51.052;17.056;2023-05-18T13:29:51;20.10;32.70
45233;DHT22;30969;51.052;17.056;2023-05-18T13:34:56;20.30;32.30
45233;DHT22;30969;51.052;17.056;2023-05-18T13:40:00;20.30;31.70
45233;DHT22;30969;51.052;17.056;2023-05-18T13:45:05;20.60;33.70
45233;DHT22;30969;51.052;17.056;2023-05-18T13:50:10;20.80;31.90
45233;DHT22;30969;51.052;17.056;2023-05-18T13:55:15;21.10;31.10
45233;DHT22;30969;51.052;17.056;2023-05-18T14:00:19;21.30;32.00
45233;DHT22;30969;51.052;17.056;2023-05-18T14:05:24;21.50;30.30
45233;DHT22;30969;51.052;17.056;2023-05-18T14:10:29;21.90;30.30
45233;DHT22;30969;51.052;17.056;2023-05-18T14:15:33;22.70;29.60
45233;DHT22;30969;51.052;17.056;2023-05-18T14:20:38;24.80;26.80
45233;DHT22;30969;51.052;17.056;2023-05-18T14:25:42;26.90;26.60
45233;DHT22;30969;51.052;17.056;2023-05-18T14:30:47;29.00;24.70
45233;DHT22;30969;51.052;17.056;2023-05-18T14:35:52;30.50;22.90
45233;DHT22;30969;51.052;17.056;2023-05-18T14:40:58;31.30;21.40
45233;DHT22;30969;51.052;17.056;2023-05-18T14:46:02;31.90;21.90
45233;DHT22;30969;51.052;17.056;2023-05-18T14:51:11;30.70;21.70
45233;DHT22;30969;51.052;17.056;2023-05-18T14:56:17;29.20;21.40
45233;DHT22;30969;51.052;17.056;2023-05-18T15:01:21;28.00;22.80
45233;DHT22;30969;51.052;17.056;2023-05-18T15:06:27;28.50;22.90
45233;DHT22;30969;51.052;17.056;2023-05-18T15:11:30;29.50;22.00
45233;DHT22;30969;51.052;17.056;2023-05-18T15:16:34;30.30;22.20
45233;DHT22;30969;51.052;17.056;2023-05-18T15:21:40;31.00;20.80
45233;DHT22;30969;51.052;17.056;2023-05-18T15:26:46;31.50;20.60
45233;DHT22;30969;51.052;17.056;2023-05-18T15:31:50;33.10;22.00
45233;DHT22;30969;51.052;17.056;2023-05-18T15:36:57;34.90;19.30
45233;DHT22;30969;51.052;17.056;2023-05-18T15:42:01;35.60;18.00
45233;DHT22;30969;51.052;17.056;2023-05-18T15:47:06;36.00;17.00
45233;DHT22;30969;51.052;17.056;2023-05-18T15:52:11;36.00;18.00
45233;DHT22;30969;51.052;17.056;2023-05-18T15:57:14;35.90;18.20
45233;DHT22;30969;51.052;17.056;2023-05-18T16:02:18;35.90;16.70
45233;DHT22;30969;51.052;17.056;2023-05-18T16:07:23;35.40;16.90
45233;DHT22;30969;51.052;17.056;2023-05-18T16:12:27;33.70;16.90
45233;DHT22;30969;51.052;17.056;2023-05-18T16:17:30;31.50;18.60
45233;DHT22;30969;51.052;17.056;2023-05-18T16:22:35;29.10;20.80
45233;DHT22;30969;51.052;17.056;2023-05-18T16:27:39;27.70;22.60
45233;DHT22;30969;51.052;17.056;2023-05-18T16:32:43;26.70;22.70
45233;DHT22;30969;51.052;17.056;2023-05-18T16:37:48;25.80;24.00
45233;DHT22;30969;51.052;17.056;2023-05-18T16:42:51;25.10;24.90
45233;DHT22;30969;51.052;17.056;2023-05-18T16:47:55;24.50;26.40
45233;DHT22;30969;51.052;17.056;2023-05-18T16:53:00;24.40;26.10
45233;DHT22;30969;51.052;17.056;2023-05-18T16:58:03;24.70;26.40
45233;DHT22;30969;51.052;17.056;2023-05-18T17:03:07;24.60;25.80
45233;DHT22;30969;51.052;17.056;2023-05-18T17:08:13;24.00;26.30
45233;DHT22;30969;51.052;17.056;2023-05-18T17:13:16;23.20;27.30
45233;DHT22;30969;51.052;17.056;2023-05-18T17:18:20;22.60;28.90
45233;DHT22;30969;51.052;17.056;2023-05-18T17:23:25;22.20;28.90
45233;DHT22;30969;51.052;17.056;2023-05-18T17:28:28;21.60;29.80
45233;DHT22;30969;51.052;17.056;2023-05-18T17:33:32;21.30;30.00
45233;DHT22;30969;51.052;17.056;2023-05-18T17:38:37;21.20;30.30
45233;DHT22;30969;51.052;17.056;2023-05-18T17:43:40;21.20;31.10
45233;DHT22;30969;51.052;17.056;2023-05-18T17:48:43;20.80;33.20
45233;DHT22;30969;51.052;17.056;2023-05-18T17:53:49;20.40;34.10
45233;DHT22;30969;51.052;17.056;2023-05-18T17:58:53;19.90;35.80
45233;DHT22;30969;51.052;17.056;2023-05-18T18:03:57;19.40;37.50
45233;DHT22;30969;51.052;17.056;2023-05-18T18:09:03;18.90;37.20
45233;DHT22;30969;51.052;17.056;2023-05-18T18:14:07;18.70;38.80
45233;DHT22;30969;51.052;17.056;2023-05-18T18:19:10;18.60;37.70
45233;DHT22;30969;51.052;17.056;2023-05-18T18:24:15;18.60;37.60
45233;DHT22;30969;51.052;17.056;2023-05-18T18:29:19;18.60;37.00
45233;DHT22;30969;51.052;17.056;2023-05-18T18:34:23;18.60;37.30
45233;DHT22;30969;51.052;17.056;2023-05-18T18:39:28;18.60;37.00
45233;DHT22;30969;51.052;17.056;2023-05-18T18:44:31;18.60;37.00
45233;DHT22;30969;51.052;17.056;2023-05-18T18:49:35;18.60;37.00
45233;DHT22;30969;51.052;17.056;2023-05-18T18:54:40;18.50;37.50
45233;DHT22;30969;51.052;17.056;2023-05-18T18:59:44;18.30;37.20
45233;DHT22;30969;51.052;17.056;2023-05-18T19:04:48;18.30;37.80
45233;DHT22;30969;51.052;17.056;2023-05-18T19:09:53;18.10;39.60
45233;DHT22;30969;51.052;17.056;2023-05-18T19:14:57;17.80;39.70
45233;DHT22;30969;51.052;17.056;2023-05-18T19:20:02;17.70;39.60
45233;DHT22;30969;51.052;17.056;2023-05-18T19:25:08;17.60;39.60
45233;DHT22;30969;51.052;17.056;2023-05-18T19:30:11;17.60;40.90
45233;DHT22;30969;51.052;17.056;2023-05-18T19:35:18;17.40;42.00
45233;DHT22;30969;51.052;17.056;2023-05-18T19:40:23;17.30;41.30
45233;DHT22;30969;51.052;17.056;2023-05-18T19:45:28;17.30;41.20
45233;DHT22;30969;51.052;17.056;2023-05-18T19:50:33;17.30;41.90
45233;DHT22;30969;51.052;17.056;2023-05-18T19:55:38;17.20;42.10
45233;DHT22;30969;51.052;17.056;2023-05-18T20:00:41;17.10;42.40
45233;DHT22;30969;51.052;17.056;2023-05-18T20:05:45;17.10;42.50
45233;DHT22;30969;51.052;17.056;2023-05-18T20:10:52;17.00;42.90
45233;DHT22;30969;51.052;17.056;2023-05-18T20:15:57;16.90;43.40
45233;DHT22;30969;51.052;17.056;2023-05-18T20:21:04;16.90;43.40
45233;DHT22;30969;51.052;17.056;2023-05-18T20:26:09;16.90;43.80
45233;DHT22;30969;51.052;17.056;2023-05-18T20:31:12;16.90;44.40
45233;DHT22;30969;51.052;17.056;2023-05-18T20:36:16;16.80;44.60
45233;DHT22;30969;51.052;17.056;2023-05-18T20:41:21;16.70;44.50
45233;DHT22;30969;51.052;17.056;2023-05-18T20:46:25;16.70;44.90
45233;DHT22;30969;51.052;17.056;2023-05-18T20:51:28;16.70;45.20
45233;DHT22;30969;51.052;17.056;2023-05-18T20:56:34;16.60;45.30
45233;DHT22;30969;51.052;17.056;2023-05-18T21:01:39;16.50;46.00
45233;DHT22;30969;51.052;17.056;2023-05-18T21:06:44;16.50;46.30
45233;DHT22;30969;51.052;17.056;2023-05-18T21:11:49;16.40;46.30
45233;DHT22;30969;51.052;17.056;2023-05-18T21:16:53;16.40;46.50
45233;DHT22;30969;51.052;17.056;2023-05-18T21:21:56;16.30;47.50
45233;DHT22;30969;51.052;17.056;2023-05-18T21:27:01;16.20;47.30
45233;DHT22;30969;51.052;17.056;2023-05-18T21:32:05;16.20;47.80
45233;DHT22;30969;51.052;17.056;2023-05-18T21:37:10;16.10;48.10
45233;DHT22;30969;51.052;17.056;2023-05-18T21:42:15;16.00;48.30
45233;DHT22;30969;51.052;17.056;2023-05-18T21:47:18;16.00;48.10
45233;DHT22;30969;51.052;17.056;2023-05-18T21:52:22;15.90;48.30
45233;DHT22;30969;51.052;17.056;2023-05-18T21:57:27;15.90;49.00
45233;DHT22;30969;51.052;17.056;2023-05-18T22:02:31;15.90;49.10
45233;DHT22;30969;51.052;17.056;2023-05-18T22:07:35;15.80;49.40
45233;DHT22;30969;51.052;17.056;2023-05-18T22:12:40;15.70;51.20
45233;DHT22;30969;51.052;17.056;2023-05-18T22:17:47;15.50;53.20
45233;DHT22;30969;51.052;17.056;2023-05-18T22:22:51;15.30;53.90
45233;DHT22;30969;51.052;17.056;2023-05-18T22:27:55;15.10;54.20
